sensor_id;sensor_type;location;lat;lon;timestamp;pressure;altitude;pressure_sealevel;temperature;humidity
43741;BME280;29352;48.708;9.290;2023-05-01T00:00:54;97788.75;;;0.52;88.91
43741;BME280;29352;48.708;9.290;2023-05-01T00:03:19;97795.72;;;0.61;88.34
43741;BME280;29352;48.708;9.290;2023-05-01T00:05:45;97794.63;;;0.45;88.19
43741;BME280;29352;48.708;9.290;2023-05-01T00:08:11;97790.97;;;0.64;87.82
43741;BME280;29352;48.708;9.290;2023-05-01T00:10:38;97790.41;;;0.53;87.08
43741;BME280;29352;48.708;9.290;2023-05-01T00:13:04;97784.31;;;0.52;88.03
43741;BME280;29352;48.708;9.290;2023-05-01T00:15:30;97787.22;;;0.41;88.65
43741;BME280;29352;48.708;9.290;2023-05-01T00:17:57;97782.75;;;0.15;89.98
43741;BME280;29352;48.708;9.290;2023-05-01T00:20:28;97780.72;;;0.09;89.87
43741;BME280;29352;48.708;9.290;2023-05-01T00:22:54;97779.53;;;0.04;90.02
43741;BME280;29352;48.708;9.290;2023-05-01T00:25:20;97774.72;;;0.17;89.29
43741;BME280;29352;48.708;9.290;2023-05-01T00:27:46;97772.31;;;0.23;88.89
43741;BME280;29352;48.708;9.290;2023-05-01T00:30:12;97770.50;;;0.24;89.07
43741;BME280;29352;48.708;9.290;2023-05-01T00:32:37;97767.09;;;0.50;87.26
43741;BME280;29352;48.708;9.290;2023-05-01T00:35:03;97766.47;;;0.30;88.08
43741;BME280;29352;48.708;9.290;2023-05-01T00:37:29;97760.75;;;0.34;88.10
43741;BME280;29352;48.708;9.290;2023-05-01T00:39:54;97762.34;;;0.27;88.61
43741;BME280;29352;48.708;9.290;2023-05-01T00:42:20;97757.97;;;0.18;88.70
43741;BME280;29352;48.708;9.290;2023-05-01T00:44:45;97754.88;;;0.40;88.03
43741;BME280;29352;48.708;9.290;2023-05-01T00:47:11;97755.31;;;0.54;88.39
43741;BME280;29352;48.708;9.290;2023-05-01T00:49:37;97757.50;;;0.40;88.86
43741;BME280;29352;48.708;9.290;2023-05-01T00:52:02;97746.50;;;0.37;88.87
43741;BME280;29352;48.708;9.290;2023-05-01T00:54:28;97743.22;;;0.17;89.70
43741;BME280;29352;48.708;9.290;2023-05-01T00:56:55;97739.41;;;0.29;89.16
43741;BME280;29352;48.708;9.290;2023-05-01T00:59:20;97738.78;;;0.17;90.34
43741;BME280;29352;48.708;9.290;2023-05-01T01:01:46;97739.53;;;0.28;89.15
43741;BME280;29352;48.708;9.290;2023-05-01T01:04:12;97744.34;;;0.32;89.27
43741;BME280;29352;48.708;9.290;2023-05-01T01:07:09;97738.00;;;0.25;89.36
43741;BME280;29352;48.708;9.290;2023-05-01T01:16:20;97732.03;;;0.33;90.00
43741;BME280;29352;48.708;9.290;2023-05-01T01:21:40;97723.84;;;0.18;91.12
43741;BME280;29352;48.708;9.290;2023-05-01T01:29:55;97720.78;;;0.48;90.40
43741;BME280;29352;48.708;9.290;2023-05-01T01:35:27;97712.56;;;0.43;90.63
43741;BME280;29352;48.708;9.290;2023-05-01T01:40:56;97718.75;;;0.34;90.95
43741;BME280;29352;48.708;9.290;2023-05-01T01:43:28;97720.19;;;0.11;90.71
43741;BME280;29352;48.708;9.290;2023-05-01T01:46:04;97717.47;;;0.20;90.43
43741;BME280;29352;48.708;9.290;2023-05-01T01:48:36;97711.66;;;0.27;91.86
43741;BME280;29352;48.708;9.290;2023-05-01T01:51:13;97716.72;;;0.28;91.54
43741;BME280;29352;48.708;9.290;2023-05-01T01:53:47;97714.22;;;0.44;91.20
43741;BME280;29352;48.708;9.290;2023-05-01T01:56:17;97717.41;;;0.30;90.67
43741;BME280;29352;48.708;9.290;2023-05-01T01:58:47;97710.84;;;0.26;91.55
43741;BME280;29352;48.708;9.290;2023-05-01T02:01:17;97704.16;;;0.14;91.16
43741;BME280;29352;48.708;9.290;2023-05-01T02:03:46;97693.44;;;0.59;90.38
43741;BME280;29352;48.708;9.290;2023-05-01T02:06:14;97697.16;;;0.48;90.66
43741;BME280;29352;48.708;9.290;2023-05-01T02:08:43;97699.84;;;0.57;90.08
43741;BME280;29352;48.708;9.290;2023-05-01T02:11:15;97690.78;;;0.59;90.60
43741;BME280;29352;48.708;9.290;2023-05-01T02:13:47;97687.47;;;0.49;90.83
43741;BME280;29352;48.708;9.290;2023-05-01T02:16:15;97683.72;;;0.52;90.77
43741;BME280;29352;48.708;9.290;2023-05-01T02:18:43;97677.97;;;0.56;89.57
43741;BME280;29352;48.708;9.290;2023-05-01T02:21:13;97682.50;;;0.12;91.49
43741;BME280;29352;48.708;9.290;2023-05-01T02:23:40;97676.31;;;0.21;91.50
43741;BME280;29352;48.708;9.290;2023-05-01T02:26:12;97674.81;;;0.44;90.46
43741;BME280;29352;48.708;9.290;2023-05-01T02:28:41;97673.22;;;0.52;90.30
43741;BME280;29352;48.708;9.290;2023-05-01T02:31:08;97670.16;;;0.30;90.62
43741;BME280;29352;48.708;9.290;2023-05-01T02:33:34;97670.97;;;0.31;91.19
43741;BME280;29352;48.708;9.290;2023-05-01T02:36:00;97671.69;;;0.15;91.36
43741;BME280;29352;48.708;9.290;2023-05-01T02:38:26;97666.41;;;0.33;91.37
43741;BME280;29352;48.708;9.290;2023-05-01T02:40:56;97666.91;;;0.10;91.70
43741;BME280;29352;48.708;9.290;2023-05-01T02:43:24;97665.88;;;0.03;92.43
43741;BME280;29352;48.708;9.290;2023-05-01T02:45:53;97663.69;;;0.24;91.19
43741;BME280;29352;48.708;9.290;2023-05-01T02:48:25;97658.19;;;0.10;92.41
43741;BME280;29352;48.708;9.290;2023-05-01T02:50:53;97651.84;;;0.20;92.62
43741;BME280;29352;48.708;9.290;2023-05-01T02:53:21;97658.72;;;0.39;91.52
43741;BME280;29352;48.708;9.290;2023-05-01T02:55:47;97659.66;;;0.30;91.30
43741;BME280;29352;48.708;9.290;2023-05-01T02:58:18;97654.69;;;0.53;90.47
43741;BME280;29352;48.708;9.290;2023-05-01T03:00:45;97656.56;;;0.35;91.43
43741;BME280;29352;48.708;9.290;2023-05-01T03:03:13;97647.78;;;0.52;92.21
43741;BME280;29352;48.708;9.290;2023-05-01T03:05:40;97656.00;;;0.57;91.44
43741;BME280;29352;48.708;9.290;2023-05-01T03:08:06;97656.53;;;0.77;90.10
43741;BME280;29352;48.708;9.290;2023-05-01T03:10:32;97657.75;;;0.48;90.12
43741;BME280;29352;48.708;9.290;2023-05-01T03:12:58;97656.44;;;0.44;90.61
43741;BME280;29352;48.708;9.290;2023-05-01T03:15:24;97660.25;;;0.50;90.73
43741;BME280;29352;48.708;9.290;2023-05-01T03:17:50;97663.63;;;0.42;89.92
43741;BME280;29352;48.708;9.290;2023-05-01T03:20:15;97647.34;;;0.73;89.12
43741;BME280;29352;48.708;9.290;2023-05-01T03:22:41;97639.84;;;0.86;88.29
43741;BME280;29352;48.708;9.290;2023-05-01T03:25:06;97648.22;;;0.90;88.14
43741;BME280;29352;48.708;9.290;2023-05-01T03:27:33;97637.41;;;1.01;87.58
43741;BME280;29352;48.708;9.290;2023-05-01T03:29:58;97650.84;;;0.90;88.55
43741;BME280;29352;48.708;9.290;2023-05-01T03:32:24;97646.13;;;1.10;87.57
43741;BME280;29352;48.708;9.290;2023-05-01T03:34:49;97633.94;;;1.01;88.13
43741;BME280;29352;48.708;9.290;2023-05-01T03:37:14;97639.06;;;1.10;89.84
43741;BME280;29352;48.708;9.290;2023-05-01T03:39:40;97631.00;;;1.04;90.45
43741;BME280;29352;48.708;9.290;2023-05-01T03:42:06;97637.28;;;1.19;89.31
43741;BME280;29352;48.708;9.290;2023-05-01T03:44:31;97634.97;;;1.65;86.51
43741;BME280;29352;48.708;9.290;2023-05-01T03:46:57;97626.44;;;1.38;86.82
43741;BME280;29352;48.708;9.290;2023-05-01T03:49:23;97627.59;;;1.19;87.93
43741;BME280;29352;48.708;9.290;2023-05-01T03:51:48;97627.00;;;0.83;88.62
43741;BME280;29352;48.708;9.290;2023-05-01T03:54:14;97631.59;;;0.73;89.72
43741;BME280;29352;48.708;9.290;2023-05-01T03:56:39;97628.09;;;0.22;93.46
43741;BME280;29352;48.708;9.290;2023-05-01T03:59:05;97622.00;;;0.56;91.51
43741;BME280;29352;48.708;9.290;2023-05-01T04:01:30;97627.00;;;0.67;90.16
43741;BME280;29352;48.708;9.290;2023-05-01T04:03:58;97629.63;;;0.67;90.86
43741;BME280;29352;48.708;9.290;2023-05-01T04:06:23;97630.25;;;0.61;90.61
43741;BME280;29352;48.708;9.290;2023-05-01T04:08:50;97625.31;;;0.66;90.46
43741;BME280;29352;48.708;9.290;2023-05-01T04:11:15;97628.25;;;0.55;91.17
43741;BME280;29352;48.708;9.290;2023-05-01T04:13:41;97624.78;;;0.46;91.25
43741;BME280;29352;48.708;9.290;2023-05-01T04:16:06;97634.31;;;0.55;91.14
43741;BME280;29352;48.708;9.290;2023-05-01T04:18:32;97631.38;;;0.58;91.31
43741;BME280;29352;48.708;9.290;2023-05-01T04:20:57;97634.50;;;0.62;90.75
43741;BME280;29352;48.708;9.290;2023-05-01T04:23:23;97629.13;;;0.63;90.71
43741;BME280;29352;48.708;9.290;2023-05-01T04:25:48;97634.53;;;0.70;90.56
43741;BME280;29352;48.708;9.290;2023-05-01T04:28:13;97620.63;;;0.86;90.29
43741;BME280;29352;48.708;9.290;2023-05-01T04:30:39;97625.09;;;1.10;88.75
43741;BME280;29352;48.708;9.290;2023-05-01T04:33:04;97618.84;;;0.94;87.62
43741;BME280;29352;48.708;9.290;2023-05-01T04:35:39;97624.44;;;0.91;88.63
43741;BME280;29352;48.708;9.290;2023-05-01T04:38:06;97629.63;;;0.83;89.67
43741;BME280;29352;48.708;9.290;2023-05-01T04:40:32;97638.84;;;0.79;90.05
43741;BME280;29352;48.708;9.290;2023-05-01T04:42:58;97640.00;;;0.85;89.86
43741;BME280;29352;48.708;9.290;2023-05-01T04:45:24;97630.13;;;0.87;89.92
43741;BME280;29352;48.708;9.290;2023-05-01T04:47:49;97630.31;;;0.85;89.71
43741;BME280;29352;48.708;9.290;2023-05-01T04:50:15;97636.06;;;0.81;89.87
43741;BME280;29352;48.708;9.290;2023-05-01T04:52:40;97642.44;;;0.78;90.14
43741;BME280;29352;48.708;9.290;2023-05-01T04:55:06;97642.06;;;0.65;90.02
43741;BME280;29352;48.708;9.290;2023-05-01T04:57:34;97634.06;;;0.83;89.86
43741;BME280;29352;48.708;9.290;2023-05-01T04:59:59;97635.63;;;1.02;88.74
43741;BME280;29352;48.708;9.290;2023-05-01T05:02:25;97632.00;;;1.35;87.11
43741;BME280;29352;48.708;9.290;2023-05-01T05:04:51;97635.81;;;1.33;86.94
43741;BME280;29352;48.708;9.290;2023-05-01T05:07:21;97635.16;;;1.23;87.08
43741;BME280;29352;48.708;9.290;2023-05-01T05:09:46;97643.00;;;1.14;89.36
43741;BME280;29352;48.708;9.290;2023-05-01T05:12:12;97641.69;;;1.18;89.28
43741;BME280;29352;48.708;9.290;2023-05-01T05:14:39;97631.03;;;1.53;88.32
43741;BME280;29352;48.708;9.290;2023-05-01T05:17:05;97633.00;;;1.42;86.80
43741;BME280;29352;48.708;9.290;2023-05-01T05:19:31;97639.41;;;1.56;84.44
43741;BME280;29352;48.708;9.290;2023-05-01T05:21:57;97631.03;;;1.53;84.90
43741;BME280;29352;48.708;9.290;2023-05-01T05:24:22;97628.38;;;1.69;83.63
43741;BME280;29352;48.708;9.290;2023-05-01T05:26:47;97638.91;;;1.53;84.32
43741;BME280;29352;48.708;9.290;2023-05-01T05:29:13;97637.91;;;1.70;85.33
43741;BME280;29352;48.708;9.290;2023-05-01T05:31:39;97645.47;;;1.32;85.14
43741;BME280;29352;48.708;9.290;2023-05-01T05:34:04;97640.38;;;1.63;88.61
43741;BME280;29352;48.708;9.290;2023-05-01T05:36:30;97638.94;;;1.61;90.50
43741;BME280;29352;48.708;9.290;2023-05-01T05:38:55;97635.63;;;1.75;89.94
43741;BME280;29352;48.708;9.290;2023-05-01T05:41:20;97639.09;;;1.43;91.83
43741;BME280;29352;48.708;9.290;2023-05-01T05:43:46;97640.25;;;1.49;93.74
43741;BME280;29352;48.708;9.290;2023-05-01T05:46:11;97640.91;;;1.59;94.12
43741;BME280;29352;48.708;9.290;2023-05-01T05:48:37;97643.38;;;1.60;94.46
43741;BME280;29352;48.708;9.290;2023-05-01T05:51:02;97642.19;;;1.63;93.38
43741;BME280;29352;48.708;9.290;2023-05-01T05:53:28;97644.03;;;1.54;91.08
43741;BME280;29352;48.708;9.290;2023-05-01T05:55:53;97645.50;;;1.65;91.91
43741;BME280;29352;48.708;9.290;2023-05-01T05:58:19;97648.97;;;1.57;92.36
43741;BME280;29352;48.708;9.290;2023-05-01T06:00:46;97650.91;;;1.39;94.02
43741;BME280;29352;48.708;9.290;2023-05-01T06:03:12;97647.66;;;1.61;91.73
43741;BME280;29352;48.708;9.290;2023-05-01T06:05:38;97642.22;;;1.71;90.28
43741;BME280;29352;48.708;9.290;2023-05-01T06:08:04;97647.47;;;1.87;93.49
43741;BME280;29352;48.708;9.290;2023-05-01T06:10:30;97641.72;;;1.76;93.23
43741;BME280;29352;48.708;9.290;2023-05-01T06:12:55;97646.84;;;1.85;90.37
43741;BME280;29352;48.708;9.290;2023-05-01T06:15:21;97642.88;;;1.81;90.64
43741;BME280;29352;48.708;9.290;2023-05-01T06:17:48;97639.75;;;1.86;91.62
43741;BME280;29352;48.708;9.290;2023-05-01T06:20:15;97640.91;;;1.92;89.72
43741;BME280;29352;48.708;9.290;2023-05-01T06:22:40;97632.84;;;1.93;89.51
43741;BME280;29352;48.708;9.290;2023-05-01T06:25:06;97644.63;;;2.13;88.79
43741;BME280;29352;48.708;9.290;2023-05-01T06:27:33;97648.13;;;2.06;87.51
43741;BME280;29352;48.708;9.290;2023-05-01T06:29:58;97635.88;;;2.21;88.11
43741;BME280;29352;48.708;9.290;2023-05-01T06:32:24;97646.59;;;2.11;84.25
43741;BME280;29352;48.708;9.290;2023-05-01T06:34:49;97640.53;;;2.58;83.21
43741;BME280;29352;48.708;9.290;2023-05-01T06:37:15;97648.28;;;1.96;88.81
43741;BME280;29352;48.708;9.290;2023-05-01T06:39:40;97650.44;;;1.84;92.46
43741;BME280;29352;48.708;9.290;2023-05-01T06:42:06;97650.75;;;1.89;93.07
43741;BME280;29352;48.708;9.290;2023-05-01T06:44:32;97658.31;;;1.76;93.35
43741;BME280;29352;48.708;9.290;2023-05-01T06:46:57;97664.59;;;1.92;93.59
43741;BME280;29352;48.708;9.290;2023-05-01T06:49:25;97668.19;;;1.99;91.44
43741;BME280;29352;48.708;9.290;2023-05-01T06:51:51;97664.06;;;2.04;88.44
43741;BME280;29352;48.708;9.290;2023-05-01T06:54:17;97665.34;;;2.72;84.67
43741;BME280;29352;48.708;9.290;2023-05-01T06:56:42;97665.69;;;2.69;84.74
43741;BME280;29352;48.708;9.290;2023-05-01T06:59:08;97666.41;;;2.55;84.99
43741;BME280;29352;48.708;9.290;2023-05-01T07:01:33;97658.09;;;2.66;83.34
43741;BME280;29352;48.708;9.290;2023-05-01T07:03:59;97664.59;;;2.87;81.56
43741;BME280;29352;48.708;9.290;2023-05-01T07:06:24;97671.34;;;2.50;84.06
43741;BME280;29352;48.708;9.290;2023-05-01T07:08:51;97670.56;;;2.80;84.54
43741;BME280;29352;48.708;9.290;2023-05-01T07:11:17;97671.69;;;2.86;83.17
43741;BME280;29352;48.708;9.290;2023-05-01T07:13:43;97670.41;;;2.34;89.89
43741;BME280;29352;48.708;9.290;2023-05-01T07:16:08;97673.44;;;2.07;91.95
43741;BME280;29352;48.708;9.290;2023-05-01T07:18:34;97670.84;;;2.46;89.04
43741;BME280;29352;48.708;9.290;2023-05-01T07:20:59;97674.38;;;2.22;91.10
43741;BME280;29352;48.708;9.290;2023-05-01T07:23:24;97674.19;;;2.40;94.15
43741;BME280;29352;48.708;9.290;2023-05-01T07:25:51;97677.19;;;2.21;90.79
43741;BME280;29352;48.708;9.290;2023-05-01T07:28:16;97673.09;;;2.02;90.47
43741;BME280;29352;48.708;9.290;2023-05-01T07:30:43;97676.25;;;1.97;91.07
43741;BME280;29352;48.708;9.290;2023-05-01T07:33:09;97678.09;;;1.88;91.16
43741;BME280;29352;48.708;9.290;2023-05-01T07:35:35;97677.88;;;1.98;92.33
43741;BME280;29352;48.708;9.290;2023-05-01T07:38:00;97681.25;;;2.40;92.53
43741;BME280;29352;48.708;9.290;2023-05-01T07:40:25;97672.47;;;2.95;89.28
43741;BME280;29352;48.708;9.290;2023-05-01T07:42:51;97665.16;;;3.05;89.84
43741;BME280;29352;48.708;9.290;2023-05-01T07:45:16;97665.75;;;3.15;94.02
43741;BME280;29352;48.708;9.290;2023-05-01T07:47:42;97661.09;;;3.25;86.14
43741;BME280;29352;48.708;9.290;2023-05-01T07:50:11;97663.22;;;2.99;89.77
43741;BME280;29352;48.708;9.290;2023-05-01T07:52:41;97666.28;;;2.79;90.52
43741;BME280;29352;48.708;9.290;2023-05-01T07:55:07;97661.13;;;3.17;88.56
43741;BME280;29352;48.708;9.290;2023-05-01T07:57:34;97658.28;;;3.50;88.47
43741;BME280;29352;48.708;9.290;2023-05-01T08:00:00;97659.09;;;3.73;85.55
43741;BME280;29352;48.708;9.290;2023-05-01T08:02:25;97661.09;;;3.25;86.03
43741;BME280;29352;48.708;9.290;2023-05-01T08:04:51;97655.34;;;3.22;85.87
43741;BME280;29352;48.708;9.290;2023-05-01T08:07:17;97665.00;;;3.06;87.85
43741;BME280;29352;48.708;9.290;2023-05-01T08:09:44;97664.91;;;3.46;89.94
43741;BME280;29352;48.708;9.290;2023-05-01T08:12:10;97659.66;;;3.15;86.26
43741;BME280;29352;48.708;9.290;2023-05-01T08:14:35;97659.13;;;3.27;87.43
43741;BME280;29352;48.708;9.290;2023-05-01T08:17:01;97657.13;;;3.52;87.03
43741;BME280;29352;48.708;9.290;2023-05-01T08:19:26;97662.63;;;3.43;86.95
43741;BME280;29352;48.708;9.290;2023-05-01T08:21:52;97658.72;;;4.14;83.83
43741;BME280;29352;48.708;9.290;2023-05-01T08:24:18;97652.06;;;4.48;81.54
43741;BME280;29352;48.708;9.290;2023-05-01T08:26:44;97658.91;;;4.42;79.99
43741;BME280;29352;48.708;9.290;2023-05-01T08:29:10;97651.72;;;4.66;79.78
43741;BME280;29352;48.708;9.290;2023-05-01T08:31:36;97649.06;;;4.36;82.73
43741;BME280;29352;48.708;9.290;2023-05-01T08:34:04;97640.47;;;4.79;83.75
43741;BME280;29352;48.708;9.290;2023-05-01T08:36:30;97644.88;;;4.57;82.53
43741;BME280;29352;48.708;9.290;2023-05-01T08:38:57;97642.91;;;5.16;80.51
43741;BME280;29352;48.708;9.290;2023-05-01T08:41:24;97635.75;;;4.74;80.01
43741;BME280;29352;48.708;9.290;2023-05-01T08:43:52;97645.91;;;4.56;81.78
43741;BME280;29352;48.708;9.290;2023-05-01T08:46:50;97634.28;;;5.72;78.08
43741;BME280;29352;48.708;9.290;2023-05-01T08:49:24;97641.16;;;5.88;80.54
43741;BME280;29352;48.708;9.290;2023-05-01T08:51:52;97638.50;;;5.88;78.81
43741;BME280;29352;48.708;9.290;2023-05-01T08:54:22;97630.50;;;6.09;75.55
43741;BME280;29352;48.708;9.290;2023-05-01T08:56:50;97635.66;;;5.89;75.77
43741;BME280;29352;48.708;9.290;2023-05-01T08:59:17;97639.69;;;6.48;72.57
43741;BME280;29352;48.708;9.290;2023-05-01T09:01:45;97634.94;;;6.37;72.30
43741;BME280;29352;48.708;9.290;2023-05-01T09:04:13;97633.13;;;6.79;72.39
43741;BME280;29352;48.708;9.290;2023-05-01T09:06:40;97632.63;;;7.17;70.60
43741;BME280;29352;48.708;9.290;2023-05-01T09:09:06;97634.13;;;7.72;68.31
43741;BME280;29352;48.708;9.290;2023-05-01T09:11:32;97634.16;;;8.77;66.13
43741;BME280;29352;48.708;9.290;2023-05-01T09:13:59;97631.03;;;9.25;65.16
43741;BME280;29352;48.708;9.290;2023-05-01T09:16:26;97629.72;;;9.41;64.66
43741;BME280;29352;48.708;9.290;2023-05-01T09:18:54;97634.81;;;9.11;65.12
43741;BME280;29352;48.708;9.290;2023-05-01T09:21:19;97633.53;;;9.20;66.11
43741;BME280;29352;48.708;9.290;2023-05-01T09:23:45;97629.56;;;9.29;64.85
43741;BME280;29352;48.708;9.290;2023-05-01T09:26:14;97629.56;;;9.67;63.78
43741;BME280;29352;48.708;9.290;2023-05-01T09:28:40;97631.56;;;9.72;63.28
43741;BME280;29352;48.708;9.290;2023-05-01T09:34:01;97633.63;;;9.70;64.25
43741;BME280;29352;48.708;9.290;2023-05-01T09:36:30;97626.13;;;10.29;63.36
43741;BME280;29352;48.708;9.290;2023-05-01T09:38:57;97621.19;;;10.69;62.40
43741;BME280;29352;48.708;9.290;2023-05-01T09:41:25;97630.53;;;10.78;61.09
43741;BME280;29352;48.708;9.290;2023-05-01T09:43:56;97616.66;;;11.60;60.45
43741;BME280;29352;48.708;9.290;2023-05-01T09:46:24;97616.75;;;11.23;61.32
43741;BME280;29352;48.708;9.290;2023-05-01T09:48:56;97614.13;;;11.89;60.64
43741;BME280;29352;48.708;9.290;2023-05-01T09:53:51;97616.13;;;11.93;58.84
43741;BME280;29352;48.708;9.290;2023-05-01T09:56:19;97612.28;;;11.89;60.59
43741;BME280;29352;48.708;9.290;2023-05-01T09:58:52;97608.88;;;12.52;59.43
43741;BME280;29352;48.708;9.290;2023-05-01T10:01:39;97608.75;;;12.99;58.82
43741;BME280;29352;48.708;9.290;2023-05-01T10:04:07;97615.19;;;12.46;58.25
43741;BME280;29352;48.708;9.290;2023-05-01T10:06:34;97608.50;;;12.61;58.72
43741;BME280;29352;48.708;9.290;2023-05-01T10:09:02;97610.09;;;12.21;57.63
43741;BME280;29352;48.708;9.290;2023-05-01T10:11:28;97611.69;;;11.75;59.73
43741;BME280;29352;48.708;9.290;2023-05-01T10:14:09;97615.34;;;11.51;61.52
43741;BME280;29352;48.708;9.290;2023-05-01T10:16:37;97609.84;;;10.37;61.81
43741;BME280;29352;48.708;9.290;2023-05-01T10:19:04;97604.91;;;11.61;59.38
43741;BME280;29352;48.708;9.290;2023-05-01T10:21:31;97602.28;;;11.84;59.48
43741;BME280;29352;48.708;9.290;2023-05-01T10:23:58;97598.53;;;11.62;58.92
43741;BME280;29352;48.708;9.290;2023-05-01T10:26:25;97604.72;;;10.72;60.57
43741;BME280;29352;48.708;9.290;2023-05-01T10:28:54;97609.16;;;11.08;61.20
43741;BME280;29352;48.708;9.290;2023-05-01T10:31:23;97606.50;;;12.79;57.42
43741;BME280;29352;48.708;9.290;2023-05-01T10:33:48;97605.66;;;12.27;56.66
43741;BME280;29352;48.708;9.290;2023-05-01T10:36:26;97604.59;;;12.40;56.35
43741;BME280;29352;48.708;9.290;2023-05-01T10:38:57;97604.81;;;12.03;59.11
43741;BME280;29352;48.708;9.290;2023-05-01T10:44:25;97598.19;;;11.58;56.79
43741;BME280;29352;48.708;9.290;2023-05-01T10:46:51;97597.38;;;11.70;58.20
43741;BME280;29352;48.708;9.290;2023-05-01T10:49:17;97606.81;;;11.84;58.73
43741;BME280;29352;48.708;9.290;2023-05-01T10:51:59;97592.88;;;11.28;58.55
43741;BME280;29352;48.708;9.290;2023-05-01T10:54:30;97596.16;;;11.00;62.49
43741;BME280;29352;48.708;9.290;2023-05-01T10:56:59;97592.63;;;11.30;61.62
43741;BME280;29352;48.708;9.290;2023-05-01T10:59:27;97591.81;;;11.29;60.46
43741;BME280;29352;48.708;9.290;2023-05-01T11:02:27;97589.81;;;11.67;58.99
43741;BME280;29352;48.708;9.290;2023-05-01T11:04:54;97588.28;;;11.47;59.80
43741;BME280;29352;48.708;9.290;2023-05-01T11:07:21;97585.75;;;11.41;59.10
43741;BME280;29352;48.708;9.290;2023-05-01T11:09:52;97591.56;;;11.61;59.71
43741;BME280;29352;48.708;9.290;2023-05-01T11:17:53;97586.53;;;11.11;62.82
43741;BME280;29352;48.708;9.290;2023-05-01T11:22:50;97579.31;;;11.00;63.59
43741;BME280;29352;48.708;9.290;2023-05-01T11:25:29;97579.94;;;10.83;63.23
43741;BME280;29352;48.708;9.290;2023-05-01T11:28:00;97579.94;;;10.83;64.13
43741;BME280;29352;48.708;9.290;2023-05-01T11:30:38;97580.53;;;10.85;63.71
43741;BME280;29352;48.708;9.290;2023-05-01T11:33:05;97582.63;;;10.47;63.36
43741;BME280;29352;48.708;9.290;2023-05-01T11:35:31;97576.66;;;10.51;64.66
43741;BME280;29352;48.708;9.290;2023-05-01T11:37:57;97576.22;;;10.54;65.19
43741;BME280;29352;48.708;9.290;2023-05-01T11:40:31;97581.09;;;10.57;65.03
43741;BME280;29352;48.708;9.290;2023-05-01T11:43:05;97586.28;;;10.34;65.71
43741;BME280;29352;48.708;9.290;2023-05-01T11:45:34;97585.13;;;10.05;65.50
43741;BME280;29352;48.708;9.290;2023-05-01T11:48:01;97581.66;;;10.23;65.19
43741;BME280;29352;48.708;9.290;2023-05-01T11:50:37;97585.53;;;10.27;64.51
43741;BME280;29352;48.708;9.290;2023-05-01T11:53:11;97581.00;;;10.27;64.74
43741;BME280;29352;48.708;9.290;2023-05-01T11:55:40;97571.53;;;10.13;64.46
43741;BME280;29352;48.708;9.290;2023-05-01T11:58:06;97583.06;;;10.25;63.75
43741;BME280;29352;48.708;9.290;2023-05-01T12:00:37;97575.28;;;10.42;65.17
43741;BME280;29352;48.708;9.290;2023-05-01T12:05:35;97579.84;;;9.80;65.76
43741;BME280;29352;48.708;9.290;2023-05-01T12:08:21;97572.66;;;9.80;65.55
43741;BME280;29352;48.708;9.290;2023-05-01T12:10:55;97582.66;;;9.60;67.27
43741;BME280;29352;48.708;9.290;2023-05-01T12:13:22;97580.78;;;9.35;66.84
43741;BME280;29352;48.708;9.290;2023-05-01T12:15:51;97582.88;;;9.33;66.78
43741;BME280;29352;48.708;9.290;2023-05-01T12:18:18;97577.16;;;9.30;65.77
43741;BME280;29352;48.708;9.290;2023-05-01T12:20:50;97574.72;;;8.96;67.92
43741;BME280;29352;48.708;9.290;2023-05-01T12:23:19;97570.84;;;8.92;67.26
43741;BME280;29352;48.708;9.290;2023-05-01T12:25:54;97575.34;;;8.92;65.76
43741;BME280;29352;48.708;9.290;2023-05-01T12:28:19;97577.59;;;8.95;66.96
43741;BME280;29352;48.708;9.290;2023-05-01T12:30:47;97575.72;;;8.50;67.96
43741;BME280;29352;48.708;9.290;2023-05-01T12:33:19;97575.84;;;8.69;66.78
43741;BME280;29352;48.708;9.290;2023-05-01T12:35:48;97584.69;;;8.56;67.11
43741;BME280;29352;48.708;9.290;2023-05-01T12:38:21;97585.44;;;8.76;67.48
43741;BME280;29352;48.708;9.290;2023-05-01T12:40:55;97588.16;;;7.98;70.43
43741;BME280;29352;48.708;9.290;2023-05-01T12:45:56;97572.69;;;8.40;72.66
43741;BME280;29352;48.708;9.290;2023-05-01T12:48:22;97589.94;;;8.18;75.22
43741;BME280;29352;48.708;9.290;2023-05-01T12:50:49;97583.41;;;8.14;76.77
43741;BME280;29352;48.708;9.290;2023-05-01T12:53:26;97588.94;;;8.05;74.50
43741;BME280;29352;48.708;9.290;2023-05-01T12:55:55;97583.81;;;8.11;74.88
43741;BME280;29352;48.708;9.290;2023-05-01T12:58:23;97578.50;;;8.17;75.55
43741;BME280;29352;48.708;9.290;2023-05-01T13:00:59;97578.97;;;8.52;72.25
43741;BME280;29352;48.708;9.290;2023-05-01T13:03:27;97572.19;;;8.63;73.58
43741;BME280;29352;48.708;9.290;2023-05-01T13:05:57;97568.84;;;9.19;70.41
43741;BME280;29352;48.708;9.290;2023-05-01T13:08:26;97565.28;;;9.82;67.17
43741;BME280;29352;48.708;9.290;2023-05-01T13:10:55;97557.94;;;10.33;63.43
43741;BME280;29352;48.708;9.290;2023-05-01T13:13:30;97556.88;;;10.40;65.11
43741;BME280;29352;48.708;9.290;2023-05-01T13:16:12;97555.53;;;10.68;63.77
43741;BME280;29352;48.708;9.290;2023-05-01T13:18:47;97554.63;;;10.01;64.51
43741;BME280;29352;48.708;9.290;2023-05-01T13:21:19;97567.59;;;10.34;65.55
43741;BME280;29352;48.708;9.290;2023-05-01T13:26:29;97561.09;;;9.68;66.05
43741;BME280;29352;48.708;9.290;2023-05-01T13:28:57;97570.84;;;9.24;67.16
43741;BME280;29352;48.708;9.290;2023-05-01T13:31:26;97565.28;;;9.25;68.00
43741;BME280;29352;48.708;9.290;2023-05-01T13:33:53;97558.19;;;9.19;68.15
43741;BME280;29352;48.708;9.290;2023-05-01T13:36:20;97563.16;;;9.09;70.06
43741;BME280;29352;48.708;9.290;2023-05-01T13:38:48;97569.66;;;9.20;70.11
43741;BME280;29352;48.708;9.290;2023-05-01T13:41:18;97575.78;;;8.89;72.79
43741;BME280;29352;48.708;9.290;2023-05-01T13:43:49;97580.25;;;8.43;75.42
43741;BME280;29352;48.708;9.290;2023-05-01T13:46:18;97578.75;;;8.61;74.92
43741;BME280;29352;48.708;9.290;2023-05-01T13:48:46;97584.53;;;8.44;73.94
43741;BME280;29352;48.708;9.290;2023-05-01T13:51:13;97595.88;;;8.20;77.04
43741;BME280;29352;48.708;9.290;2023-05-01T13:53:46;97594.28;;;8.05;79.97
43741;BME280;29352;48.708;9.290;2023-05-01T13:56:11;97598.38;;;7.88;80.59
43741;BME280;29352;48.708;9.290;2023-05-01T13:58:38;97601.63;;;7.83;81.39